sensor_id;sensor_type;location;lat;lon;timestamp;P1;durP1;ratioP1;P2;durP2;ratioP2
55467;SDS011;41332;42.702;23.200;2023-06-22T00:01:54;7.57;;;6.28;;
55467;SDS011;41332;42.702;23.200;2023-06-22T00:04:19;5.65;;;5.15;;
55467;SDS011;41332;42.702;23.200;2023-06-22T00:06:45;6.00;;;5.25;;
55467;SDS011;41332;42.702;23.200;2023-06-22T00:09:10;7.88;;;5.25;;
55467;SDS011;41332;42.702;23.200;2023-06-22T00:11:36;6.05;;;5.53;;
55467;SDS011;41332;42.702;23.200;2023-06-22T00:14:03;6.60;;;6.00;;
55467;SDS011;41332;42.702;23.200;2023-06-22T00:16:28;9.80;;;6.23;;
55467;SDS011;41332;42.702;23.200;2023-06-22T00:18:54;5.93;;;5.40;;
55467;SDS011;41332;42.702;23.200;2023-06-22T00:21:20;6.20;;;5.40;;
55467;SDS011;41332;42.702;23.200;2023-06-22T00:23:46;5.72;;;5.30;;
55467;SDS011;41332;42.702;23.200;2023-06-22T00:26:12;6.47;;;5.40;;
55467;SDS011;41332;42.702;23.200;2023-06-22T00:28:38;5.13;;;4.72;;
55467;SDS011;41332;42.702;23.200;2023-06-22T00:31:06;6.10;;;5.50;;
55467;SDS011;41332;42.702;23.200;2023-06-22T00:33:32;7.00;;;5.68;;
55467;SDS011;41332;42.702;23.200;2023-06-22T00:35:57;8.35;;;5.88;;
55467;SDS011;41332;42.702;23.200;2023-06-22T00:38:22;5.82;;;5.32;;
55467;SDS011;41332;42.702;23.200;2023-06-22T00:40:48;6.88;;;6.15;;
55467;SDS011;41332;42.702;23.200;2023-06-22T00:43:13;8.70;;;6.28;;
55467;SDS011;41332;42.702;23.200;2023-06-22T00:45:42;7.03;;;6.40;;
55467;SDS011;41332;42.702;23.200;2023-06-22T00:48:07;7.97;;;6.72;;
55467;SDS011;41332;42.702;23.200;2023-06-22T00:50:33;9.07;;;6.70;;
55467;SDS011;41332;42.702;23.200;2023-06-22T00:53:00;7.95;;;7.22;;
55467;SDS011;41332;42.702;23.200;2023-06-22T00:55:33;6.97;;;6.28;;
55467;SDS011;41332;42.702;23.200;2023-06-22T00:58:02;9.20;;;6.20;;
55467;SDS011;41332;42.702;23.200;2023-06-22T01:00:30;6.93;;;6.30;;
55467;SDS011;41332;42.702;23.200;2023-06-22T01:02:57;7.05;;;5.50;;
55467;SDS011;41332;42.702;23.200;2023-06-22T01:05:23;6.45;;;5.72;;
55467;SDS011;41332;42.702;23.200;2023-06-22T01:10:46;7.30;;;6.57;;
55467;SDS011;41332;42.702;23.200;2023-06-22T01:13:53;7.33;;;5.93;;
55467;SDS011;41332;42.702;23.200;2023-06-22T01:16:28;10.50;;;6.22;;
55467;SDS011;41332;42.702;23.200;2023-06-22T01:18:57;7.25;;;6.50;;
55467;SDS011;41332;42.702;23.200;2023-06-22T01:21:25;9.32;;;6.72;;
55467;SDS011;41332;42.702;23.200;2023-06-22T01:26:59;8.05;;;7.07;;
55467;SDS011;41332;42.702;23.200;2023-06-22T01:29:40;8.27;;;6.95;;
55467;SDS011;41332;42.702;23.200;2023-06-22T01:32:07;8.05;;;6.30;;
55467;SDS011;41332;42.702;23.200;2023-06-22T01:34:36;7.13;;;6.35;;
55467;SDS011;41332;42.702;23.200;2023-06-22T01:37:04;7.25;;;5.95;;
55467;SDS011;41332;42.702;23.200;2023-06-22T01:39:31;6.53;;;5.93;;
55467;SDS011;41332;42.702;23.200;2023-06-22T01:41:57;8.35;;;6.50;;
55467;SDS011;41332;42.702;23.200;2023-06-22T01:44:23;6.70;;;5.80;;
55467;SDS011;41332;42.702;23.200;2023-06-22T01:46:50;8.13;;;6.45;;
55467;SDS011;41332;42.702;23.200;2023-06-22T01:49:17;7.60;;;6.50;;
55467;SDS011;41332;42.702;23.200;2023-06-22T01:51:43;8.32;;;5.78;;
55467;SDS011;41332;42.702;23.200;2023-06-22T01:54:08;6.50;;;5.95;;
55467;SDS011;41332;42.702;23.200;2023-06-22T01:56:34;7.82;;;6.20;;
55467;SDS011;41332;42.702;23.200;2023-06-22T01:59:14;7.38;;;6.00;;
55467;SDS011;41332;42.702;23.200;2023-06-22T02:01:51;6.32;;;5.68;;
55467;SDS011;41332;42.702;23.200;2023-06-22T02:04:27;7.90;;;5.65;;
55467;SDS011;41332;42.702;23.200;2023-06-22T02:06:59;6.80;;;6.20;;
55467;SDS011;41332;42.702;23.200;2023-06-22T02:09:29;6.97;;;6.28;;
55467;SDS011;41332;42.702;23.200;2023-06-22T02:11:56;6.75;;;5.85;;
55467;SDS011;41332;42.702;23.200;2023-06-22T02:14:23;8.23;;;6.30;;
55467;SDS011;41332;42.702;23.200;2023-06-22T02:16:50;6.22;;;5.50;;
55467;SDS011;41332;42.702;23.200;2023-06-22T02:19:16;6.28;;;5.65;;
55467;SDS011;41332;42.702;23.200;2023-06-22T02:21:43;7.38;;;6.22;;
55467;SDS011;41332;42.702;23.200;2023-06-22T02:24:09;9.60;;;6.45;;
55467;SDS011;41332;42.702;23.200;2023-06-22T02:26:35;7.22;;;5.78;;
55467;SDS011;41332;42.702;23.200;2023-06-22T02:29:03;7.38;;;6.63;;
55467;SDS011;41332;42.702;23.200;2023-06-22T02:31:28;8.00;;;6.25;;
55467;SDS011;41332;42.702;23.200;2023-06-22T02:33:58;10.68;;;7.60;;
55467;SDS011;41332;42.702;23.200;2023-06-22T02:36:24;9.43;;;5.90;;
55467;SDS011;41332;42.702;23.200;2023-06-22T02:38:52;6.95;;;5.60;;
55467;SDS011;41332;42.702;23.200;2023-06-22T02:41:19;7.13;;;5.88;;
55467;SDS011;41332;42.702;23.200;2023-06-22T02:43:45;6.20;;;5.60;;
55467;SDS011;41332;42.702;23.200;2023-06-22T02:46:11;7.88;;;6.05;;
55467;SDS011;41332;42.702;23.200;2023-06-22T02:48:38;11.57;;;6.65;;
55467;SDS011;41332;42.702;23.200;2023-06-22T02:51:06;6.28;;;5.63;;
55467;SDS011;41332;42.702;23.200;2023-06-22T02:53:32;7.55;;;6.50;;
55467;SDS011;41332;42.702;23.200;2023-06-22T02:55:57;8.65;;;6.88;;
55467;SDS011;41332;42.702;23.200;2023-06-22T02:58:23;9.10;;;6.97;;
55467;SDS011;41332;42.702;23.200;2023-06-22T03:00:49;6.68;;;5.82;;
55467;SDS011;41332;42.702;23.200;2023-06-22T03:03:18;8.93;;;6.75;;
55467;SDS011;41332;42.702;23.200;2023-06-22T03:05:46;7.78;;;7.05;;
55467;SDS011;41332;42.702;23.200;2023-06-22T03:08:11;7.30;;;6.47;;
55467;SDS011;41332;42.702;23.200;2023-06-22T03:10:36;9.70;;;7.10;;
55467;SDS011;41332;42.702;23.200;2023-06-22T03:13:02;7.00;;;6.35;;
55467;SDS011;41332;42.702;23.200;2023-06-22T03:15:27;7.47;;;6.50;;
55467;SDS011;41332;42.702;23.200;2023-06-22T03:17:54;7.93;;;5.90;;
55467;SDS011;41332;42.702;23.200;2023-06-22T03:20:20;9.07;;;6.72;;
55467;SDS011;41332;42.702;23.200;2023-06-22T03:22:45;11.57;;;7.10;;
55467;SDS011;41332;42.702;23.200;2023-06-22T03:25:13;6.65;;;5.88;;
55467;SDS011;41332;42.702;23.200;2023-06-22T03:27:39;14.18;;;7.00;;
55467;SDS011;41332;42.702;23.200;2023-06-22T03:30:06;8.30;;;6.53;;
55467;SDS011;41332;42.702;23.200;2023-06-22T03:32:33;6.82;;;6.22;;
55467;SDS011;41332;42.702;23.200;2023-06-22T03:34:58;9.20;;;6.45;;
55467;SDS011;41332;42.702;23.200;2023-06-22T03:37:26;7.15;;;6.55;;
55467;SDS011;41332;42.702;23.200;2023-06-22T03:39:53;6.82;;;6.13;;
55467;SDS011;41332;42.702;23.200;2023-06-22T03:42:18;7.03;;;5.65;;
55467;SDS011;41332;42.702;23.200;2023-06-22T03:44:44;7.88;;;5.70;;
55467;SDS011;41332;42.702;23.200;2023-06-22T03:47:09;7.68;;;6.97;;
55467;SDS011;41332;42.702;23.200;2023-06-22T03:49:35;7.80;;;6.10;;
55467;SDS011;41332;42.702;23.200;2023-06-22T03:52:01;7.85;;;6.38;;
55467;SDS011;41332;42.702;23.200;2023-06-22T03:54:27;8.07;;;6.10;;
55467;SDS011;41332;42.702;23.200;2023-06-22T03:56:53;6.97;;;6.30;;
55467;SDS011;41332;42.702;23.200;2023-06-22T03:59:19;8.55;;;7.22;;
55467;SDS011;41332;42.702;23.200;2023-06-22T04:01:44;11.25;;;6.30;;
55467;SDS011;41332;42.702;23.200;2023-06-22T04:04:10;7.05;;;6.35;;
55467;SDS011;41332;42.702;23.200;2023-06-22T04:06:35;9.00;;;6.03;;
55467;SDS011;41332;42.702;23.200;2023-06-22T04:09:01;6.88;;;6.18;;
55467;SDS011;41332;42.702;23.200;2023-06-22T04:11:26;7.53;;;6.72;;
55467;SDS011;41332;42.702;23.200;2023-06-22T04:13:52;6.85;;;6.15;;
55467;SDS011;41332;42.702;23.200;2023-06-22T04:16:17;11.07;;;7.22;;
55467;SDS011;41332;42.702;23.200;2023-06-22T04:18:42;13.85;;;7.55;;
55467;SDS011;41332;42.702;23.200;2023-06-22T04:21:09;7.57;;;6.50;;
55467;SDS011;41332;42.702;23.200;2023-06-22T04:23:35;9.23;;;7.45;;
55467;SDS011;41332;42.702;23.200;2023-06-22T04:26:00;10.00;;;6.80;;
55467;SDS011;41332;42.702;23.200;2023-06-22T04:28:26;8.68;;;5.80;;
55467;SDS011;41332;42.702;23.200;2023-06-22T04:30:51;7.60;;;6.95;;
55467;SDS011;41332;42.702;23.200;2023-06-22T04:33:16;7.80;;;7.00;;
55467;SDS011;41332;42.702;23.200;2023-06-22T04:35:44;8.23;;;6.88;;
55467;SDS011;41332;42.702;23.200;2023-06-22T04:38:11;8.90;;;7.38;;
55467;SDS011;41332;42.702;23.200;2023-06-22T04:40:40;8.00;;;6.93;;
55467;SDS011;41332;42.702;23.200;2023-06-22T04:43:06;10.10;;;7.35;;
55467;SDS011;41332;42.702;23.200;2023-06-22T04:45:32;7.43;;;6.72;;
55467;SDS011;41332;42.702;23.200;2023-06-22T04:47:58;9.45;;;7.25;;
55467;SDS011;41332;42.702;23.200;2023-06-22T04:50:23;7.85;;;7.07;;
55467;SDS011;41332;42.702;23.200;2023-06-22T04:52:49;8.30;;;7.47;;
55467;SDS011;41332;42.702;23.200;2023-06-22T04:55:16;8.48;;;7.40;;
55467;SDS011;41332;42.702;23.200;2023-06-22T04:57:43;10.40;;;7.82;;
55467;SDS011;41332;42.702;23.200;2023-06-22T05:00:14;7.97;;;7.20;;
55467;SDS011;41332;42.702;23.200;2023-06-22T05:02:42;7.35;;;6.55;;
55467;SDS011;41332;42.702;23.200;2023-06-22T05:05:09;8.75;;;7.90;;
55467;SDS011;41332;42.702;23.200;2023-06-22T05:07:38;8.60;;;7.78;;
55467;SDS011;41332;42.702;23.200;2023-06-22T05:10:07;8.30;;;7.20;;
55467;SDS011;41332;42.702;23.200;2023-06-22T05:12:33;7.43;;;6.75;;
55467;SDS011;41332;42.702;23.200;2023-06-22T05:14:59;9.35;;;7.38;;
55467;SDS011;41332;42.702;23.200;2023-06-22T05:17:26;8.25;;;7.45;;
55467;SDS011;41332;42.702;23.200;2023-06-22T05:19:52;8.02;;;7.30;;
55467;SDS011;41332;42.702;23.200;2023-06-22T05:22:17;8.60;;;6.97;;
55467;SDS011;41332;42.702;23.200;2023-06-22T05:24:43;10.32;;;8.20;;
55467;SDS011;41332;42.702;23.200;2023-06-22T05:27:09;10.38;;;9.48;;
55467;SDS011;41332;42.702;23.200;2023-06-22T05:29:36;8.90;;;7.55;;
55467;SDS011;41332;42.702;23.200;2023-06-22T05:32:02;10.32;;;8.95;;
55467;SDS011;41332;42.702;23.200;2023-06-22T05:34:28;9.30;;;8.40;;
55467;SDS011;41332;42.702;23.200;2023-06-22T05:36:53;10.48;;;8.50;;
55467;SDS011;41332;42.702;23.200;2023-06-22T05:39:18;7.82;;;7.13;;
55467;SDS011;41332;42.702;23.200;2023-06-22T05:41:44;10.27;;;7.70;;
55467;SDS011;41332;42.702;23.200;2023-06-22T05:44:10;8.68;;;7.95;;
55467;SDS011;41332;42.702;23.200;2023-06-22T05:46:36;8.93;;;8.07;;
55467;SDS011;41332;42.702;23.200;2023-06-22T05:49:02;10.88;;;8.40;;
55467;SDS011;41332;42.702;23.200;2023-06-22T05:51:27;10.73;;;8.35;;
55467;SDS011;41332;42.702;23.200;2023-06-22T05:53:52;10.27;;;8.18;;
55467;SDS011;41332;42.702;23.200;2023-06-22T05:56:18;9.57;;;8.40;;
55467;SDS011;41332;42.702;23.200;2023-06-22T05:58:43;8.93;;;8.02;;
55467;SDS011;41332;42.702;23.200;2023-06-22T06:01:09;9.55;;;8.18;;
55467;SDS011;41332;42.702;23.200;2023-06-22T06:03:34;9.95;;;8.95;;
55467;SDS011;41332;42.702;23.200;2023-06-22T06:06:06;12.20;;;8.85;;
55467;SDS011;41332;42.702;23.200;2023-06-22T06:08:35;10.77;;;8.57;;
55467;SDS011;41332;42.702;23.200;2023-06-22T06:11:01;9.68;;;8.18;;
55467;SDS011;41332;42.702;23.200;2023-06-22T06:13:27;9.05;;;8.25;;
55467;SDS011;41332;42.702;23.200;2023-06-22T06:15:52;14.43;;;8.27;;
55467;SDS011;41332;42.702;23.200;2023-06-22T06:18:20;12.15;;;8.88;;
55467;SDS011;41332;42.702;23.200;2023-06-22T06:20:45;12.10;;;8.20;;
55467;SDS011;41332;42.702;23.200;2023-06-22T06:23:11;9.10;;;8.15;;
55467;SDS011;41332;42.702;23.200;2023-06-22T06:25:36;12.15;;;8.88;;
55467;SDS011;41332;42.702;23.200;2023-06-22T06:28:01;17.13;;;9.02;;
55467;SDS011;41332;42.702;23.200;2023-06-22T06:30:28;14.57;;;8.65;;
55467;SDS011;41332;42.702;23.200;2023-06-22T06:32:53;10.10;;;8.52;;
55467;SDS011;41332;42.702;23.200;2023-06-22T06:35:19;15.73;;;9.27;;
55467;SDS011;41332;42.702;23.200;2023-06-22T06:37:45;12.20;;;8.93;;
55467;SDS011;41332;42.702;23.200;2023-06-22T06:40:12;11.60;;;9.25;;
55467;SDS011;41332;42.702;23.200;2023-06-22T06:42:39;12.50;;;8.75;;
55467;SDS011;41332;42.702;23.200;2023-06-22T06:45:27;11.98;;;8.73;;
55467;SDS011;41332;42.702;23.200;2023-06-22T06:47:53;11.07;;;8.52;;
55467;SDS011;41332;42.702;23.200;2023-06-22T06:50:19;9.60;;;8.60;;
55467;SDS011;41332;42.702;23.200;2023-06-22T06:52:45;12.53;;;9.50;;
55467;SDS011;41332;42.702;23.200;2023-06-22T06:55:10;11.73;;;8.37;;
55467;SDS011;41332;42.702;23.200;2023-06-22T06:57:39;11.13;;;9.02;;
55467;SDS011;41332;42.702;23.200;2023-06-22T07:00:06;13.75;;;10.35;;
55467;SDS011;41332;42.702;23.200;2023-06-22T07:02:35;10.65;;;9.43;;
55467;SDS011;41332;42.702;23.200;2023-06-22T07:05:00;14.57;;;10.90;;
55467;SDS011;41332;42.702;23.200;2023-06-22T07:07:29;14.68;;;9.65;;
55467;SDS011;41332;42.702;23.200;2023-06-22T07:09:54;13.37;;;10.43;;
55467;SDS011;41332;42.702;23.200;2023-06-22T07:12:20;12.47;;;10.63;;
55467;SDS011;41332;42.702;23.200;2023-06-22T07:14:46;9.45;;;8.55;;
55467;SDS011;41332;42.702;23.200;2023-06-22T07:17:11;10.00;;;9.10;;
55467;SDS011;41332;42.702;23.200;2023-06-22T07:19:36;9.90;;;8.90;;
55467;SDS011;41332;42.702;23.200;2023-06-22T07:22:02;10.77;;;9.70;;
55467;SDS011;41332;42.702;23.200;2023-06-22T07:24:27;11.27;;;10.17;;
55467;SDS011;41332;42.702;23.200;2023-06-22T07:26:53;11.43;;;10.23;;
55467;SDS011;41332;42.702;23.200;2023-06-22T07:29:18;13.30;;;10.57;;
55467;SDS011;41332;42.702;23.200;2023-06-22T07:31:49;10.95;;;9.45;;
55467;SDS011;41332;42.702;23.200;2023-06-22T07:34:16;10.70;;;9.35;;
55467;SDS011;41332;42.702;23.200;2023-06-22T07:36:42;10.93;;;9.83;;
55467;SDS011;41332;42.702;23.200;2023-06-22T07:41:34;9.73;;;8.73;;
55467;SDS011;41332;42.702;23.200;2023-06-22T07:43:59;9.20;;;8.30;;
55467;SDS011;41332;42.702;23.200;2023-06-22T07:46:24;9.77;;;8.80;;
55467;SDS011;41332;42.702;23.200;2023-06-22T07:48:50;9.70;;;8.87;;
55467;SDS011;41332;42.702;23.200;2023-06-22T07:51:16;10.80;;;9.68;;
55467;SDS011;41332;42.702;23.200;2023-06-22T07:53:42;9.57;;;8.53;;
55467;SDS011;41332;42.702;23.200;2023-06-22T07:56:11;9.25;;;8.40;;
55467;SDS011;41332;42.702;23.200;2023-06-22T07:58:37;10.02;;;9.00;;
55467;SDS011;41332;42.702;23.200;2023-06-22T08:01:03;10.43;;;9.50;;
55467;SDS011;41332;42.702;23.200;2023-06-22T08:03:28;11.77;;;9.23;;
55467;SDS011;41332;42.702;23.200;2023-06-22T08:05:54;9.93;;;8.93;;
55467;SDS011;41332;42.702;23.200;2023-06-22T08:08:20;10.80;;;9.60;;
55467;SDS011;41332;42.702;23.200;2023-06-22T08:10:45;10.43;;;8.90;;
55467;SDS011;41332;42.702;23.200;2023-06-22T08:13:10;16.03;;;9.80;;
55467;SDS011;41332;42.702;23.200;2023-06-22T08:15:36;9.83;;;8.80;;
55467;SDS011;41332;42.702;23.200;2023-06-22T08:18:01;10.30;;;9.03;;
55467;SDS011;41332;42.702;23.200;2023-06-22T08:20:27;13.23;;;11.73;;
55467;SDS011;41332;42.702;23.200;2023-06-22T08:22:53;12.37;;;9.30;;
55467;SDS011;41332;42.702;23.200;2023-06-22T08:25:19;11.20;;;9.55;;
55467;SDS011;41332;42.702;23.200;2023-06-22T08:27:47;11.00;;;9.88;;
55467;SDS011;41332;42.702;23.200;2023-06-22T08:30:13;9.93;;;8.80;;
55467;SDS011;41332;42.702;23.200;2023-06-22T08:32:39;10.70;;;9.60;;
55467;SDS011;41332;42.702;23.200;2023-06-22T08:37:33;11.70;;;8.93;;
55467;SDS011;41332;42.702;23.200;2023-06-22T08:40:00;10.43;;;9.38;;
55467;SDS011;41332;42.702;23.200;2023-06-22T08:42:26;10.25;;;9.35;;
55467;SDS011;41332;42.702;23.200;2023-06-22T08:44:52;10.68;;;9.57;;
55467;SDS011;41332;42.702;23.200;2023-06-22T08:47:18;9.52;;;8.60;;
55467;SDS011;41332;42.702;23.200;2023-06-22T08:49:44;10.13;;;8.73;;
55467;SDS011;41332;42.702;23.200;2023-06-22T08:52:10;9.70;;;8.70;;
55467;SDS011;41332;42.702;23.200;2023-06-22T08:54:35;9.87;;;9.07;;
55467;SDS011;41332;42.702;23.200;2023-06-22T08:57:01;8.70;;;8.00;;
55467;SDS011;41332;42.702;23.200;2023-06-22T09:01:52;9.27;;;8.45;;
55467;SDS011;41332;42.702;23.200;2023-06-22T09:04:17;14.03;;;8.93;;
55467;SDS011;41332;42.702;23.200;2023-06-22T09:06:43;8.40;;;7.60;;
55467;SDS011;41332;42.702;23.200;2023-06-22T09:09:10;7.95;;;7.38;;
55467;SDS011;41332;42.702;23.200;2023-06-22T09:11:37;8.38;;;7.72;;
55467;SDS011;41332;42.702;23.200;2023-06-22T09:14:02;11.23;;;7.40;;
55467;SDS011;41332;42.702;23.200;2023-06-22T09:16:28;8.65;;;7.90;;
55467;SDS011;41332;42.702;23.200;2023-06-22T09:18:54;8.83;;;8.10;;
55467;SDS011;41332;42.702;23.200;2023-06-22T09:21:19;9.00;;;8.17;;
55467;SDS011;41332;42.702;23.200;2023-06-22T09:23:45;8.17;;;7.57;;
55467;SDS011;41332;42.702;23.200;2023-06-22T09:26:15;8.45;;;7.47;;
55467;SDS011;41332;42.702;23.200;2023-06-22T09:28:59;8.63;;;7.78;;
55467;SDS011;41332;42.702;23.200;2023-06-22T09:31:24;8.63;;;7.77;;
55467;SDS011;41332;42.702;23.200;2023-06-22T09:33:52;8.13;;;7.43;;
55467;SDS011;41332;42.702;23.200;2023-06-22T09:38:44;8.27;;;7.47;;
55467;SDS011;41332;42.702;23.200;2023-06-22T09:41:09;8.70;;;7.60;;
55467;SDS011;41332;42.702;23.200;2023-06-22T09:43:35;6.87;;;6.37;;
55467;SDS011;41332;42.702;23.200;2023-06-22T09:46:01;7.53;;;6.93;;
55467;SDS011;41332;42.702;23.200;2023-06-22T09:48:27;9.35;;;8.50;;
55467;SDS011;41332;42.702;23.200;2023-06-22T09:53:18;8.02;;;7.43;;
55467;SDS011;41332;42.702;23.200;2023-06-22T09:55:44;8.00;;;7.40;;
55467;SDS011;41332;42.702;23.200;2023-06-22T09:58:09;8.13;;;7.43;;
55467;SDS011;41332;42.702;23.200;2023-06-22T10:00:35;10.17;;;7.70;;
55467;SDS011;41332;42.702;23.200;2023-06-22T10:03:00;8.23;;;7.60;;
55467;SDS011;41332;42.702;23.200;2023-06-22T10:05:26;8.40;;;6.93;;
55467;SDS011;41332;42.702;23.200;2023-06-22T10:07:51;8.27;;;7.60;;
55467;SDS011;41332;42.702;23.200;2023-06-22T10:10:17;7.85;;;7.25;;
55467;SDS011;41332;42.702;23.200;2023-06-22T10:12:45;8.13;;;7.43;;
55467;SDS011;41332;42.702;23.200;2023-06-22T10:15:11;7.30;;;6.57;;
55467;SDS011;41332;42.702;23.200;2023-06-22T10:17:37;6.93;;;6.38;;
55467;SDS011;41332;42.702;23.200;2023-06-22T10:20:03;7.40;;;6.80;;
55467;SDS011;41332;42.702;23.200;2023-06-22T10:22:36;7.30;;;6.70;;
55467;SDS011;41332;42.702;23.200;2023-06-22T10:25:01;7.65;;;7.03;;
55467;SDS011;41332;42.702;23.200;2023-06-22T10:27:27;9.13;;;8.23;;
55467;SDS011;41332;42.702;23.200;2023-06-22T10:29:52;11.77;;;8.70;;
55467;SDS011;41332;42.702;23.200;2023-06-22T10:34:44;7.57;;;6.82;;
55467;SDS011;41332;42.702;23.200;2023-06-22T10:37:09;8.33;;;6.67;;
55467;SDS011;41332;42.702;23.200;2023-06-22T10:39:34;7.43;;;6.73;;
55467;SDS011;41332;42.702;23.200;2023-06-22T10:42:00;6.97;;;6.37;;
55467;SDS011;41332;42.702;23.200;2023-06-22T10:44:25;6.57;;;6.07;;
55467;SDS011;41332;42.702;23.200;2023-06-22T10:46:51;6.47;;;6.07;;
55467;SDS011;41332;42.702;23.200;2023-06-22T10:49:16;7.23;;;6.53;;
55467;SDS011;41332;42.702;23.200;2023-06-22T10:51:41;6.67;;;6.07;;
55467;SDS011;41332;42.702;23.200;2023-06-22T10:54:07;7.47;;;6.77;;
55467;SDS011;41332;42.702;23.200;2023-06-22T10:56:32;6.63;;;6.00;;
55467;SDS011;41332;42.702;23.200;2023-06-22T10:58:58;11.48;;;7.85;;
55467;SDS011;41332;42.702;23.200;2023-06-22T11:01:24;7.13;;;6.53;;
55467;SDS011;41332;42.702;23.200;2023-06-22T11:03:49;7.63;;;7.03;;
55467;SDS011;41332;42.702;23.200;2023-06-22T11:06:15;7.37;;;6.70;;
55467;SDS011;41332;42.702;23.200;2023-06-22T11:08:40;7.07;;;6.50;;
55467;SDS011;41332;42.702;23.200;2023-06-22T11:11:09;7.20;;;6.60;;
55467;SDS011;41332;42.702;23.200;2023-06-22T11:13:34;7.03;;;6.53;;
55467;SDS011;41332;42.702;23.200;2023-06-22T11:16:00;6.97;;;6.43;;
55467;SDS011;41332;42.702;23.200;2023-06-22T11:18:25;7.23;;;6.73;;
55467;SDS011;41332;42.702;23.200;2023-06-22T11:20:50;7.30;;;6.60;;
55467;SDS011;41332;42.702;23.200;2023-06-22T11:23:16;7.43;;;6.87;;
55467;SDS011;41332;42.702;23.200;2023-06-22T11:25:41;7.20;;;6.70;;
55467;SDS011;41332;42.702;23.200;2023-06-22T11:28:07;8.32;;;7.45;;
55467;SDS011;41332;42.702;23.200;2023-06-22T11:30:33;9.52;;;7.50;;
55467;SDS011;41332;42.702;23.200;2023-06-22T11:32:59;7.88;;;7.03;;
55467;SDS011;41332;42.702;23.200;2023-06-22T11:35:25;6.88;;;6.25;;
55467;SDS011;41332;42.702;23.200;2023-06-22T11:37:51;8.90;;;6.50;;
55467;SDS011;41332;42.702;23.200;2023-06-22T11:40:16;8.10;;;7.07;;
55467;SDS011;41332;42.702;23.200;2023-06-22T11:45:08;7.20;;;6.47;;
55467;SDS011;41332;42.702;23.200;2023-06-22T11:47:33;8.88;;;7.07;;
55467;SDS011;41332;42.702;23.200;2023-06-22T11:49:59;6.83;;;6.17;;
55467;SDS011;41332;42.702;23.200;2023-06-22T11:52:24;9.90;;;7.27;;
55467;SDS011;41332;42.702;23.200;2023-06-22T11:54:49;7.50;;;6.93;;
55467;SDS011;41332;42.702;23.200;2023-06-22T11:57:15;8.13;;;7.33;;
55467;SDS011;41332;42.702;23.200;2023-06-22T11:59:40;7.73;;;7.03;;
55467;SDS011;41332;42.702;23.200;2023-06-22T12:02:05;7.53;;;6.90;;
55467;SDS011;41332;42.702;23.200;2023-06-22T12:04:32;7.22;;;6.72;;
55467;SDS011;41332;42.702;23.200;2023-06-22T12:06:58;7.80;;;7.20;;
55467;SDS011;41332;42.702;23.200;2023-06-22T12:09:23;15.70;;;7.90;;
55467;SDS011;41332;42.702;23.200;2023-06-22T12:11:49;10.80;;;8.53;;
55467;SDS011;41332;42.702;23.200;2023-06-22T12:14:14;27.53;;;10.70;;
55467;SDS011;41332;42.702;23.200;2023-06-22T12:16:39;13.73;;;9.40;;
55467;SDS011;41332;42.702;23.200;2023-06-22T12:19:05;9.97;;;9.03;;
55467;SDS011;41332;42.702;23.200;2023-06-22T12:21:30;14.10;;;9.80;;
55467;SDS011;41332;42.702;23.200;2023-06-22T12:23:56;11.87;;;10.53;;
55467;SDS011;41332;42.702;23.200;2023-06-22T12:26:21;10.83;;;8.97;;
55467;SDS011;41332;42.702;23.200;2023-06-22T12:28:47;10.23;;;6.37;;
55467;SDS011;41332;42.702;23.200;2023-06-22T12:31:13;9.15;;;5.43;;
55467;SDS011;41332;42.702;23.200;2023-06-22T12:33:39;14.40;;;4.80;;
55467;SDS011;41332;42.702;23.200;2023-06-22T12:36:04;7.70;;;5.60;;
55467;SDS011;41332;42.702;23.200;2023-06-22T12:38:30;6.27;;;4.30;;
55467;SDS011;41332;42.702;23.200;2023-06-22T12:40:55;7.93;;;4.25;;
55467;SDS011;41332;42.702;23.200;2023-06-22T12:43:21;10.90;;;4.70;;
55467;SDS011;41332;42.702;23.200;2023-06-22T12:45:49;10.40;;;4.03;;
55467;SDS011;41332;42.702;23.200;2023-06-22T12:48:14;13.50;;;4.30;;
55467;SDS011;41332;42.702;23.200;2023-06-22T12:50:41;8.63;;;4.10;;
55467;SDS011;41332;42.702;23.200;2023-06-22T12:53:06;13.30;;;5.63;;
55467;SDS011;41332;42.702;23.200;2023-06-22T12:55:31;10.88;;;5.07;;
55467;SDS011;41332;42.702;23.200;2023-06-22T12:57:57;11.45;;;6.40;;
55467;SDS011;41332;42.702;23.200;2023-06-22T13:00:25;7.38;;;4.85;;
55467;SDS011;41332;42.702;23.200;2023-06-22T13:02:50;8.82;;;5.15;;
55467;SDS011;41332;42.702;23.200;2023-06-22T13:05:19;11.00;;;5.88;;
55467;SDS011;41332;42.702;23.200;2023-06-22T13:07:44;9.35;;;4.95;;
55467;SDS011;41332;42.702;23.200;2023-06-22T13:10:10;10.07;;;5.70;;
55467;SDS011;41332;42.702;23.200;2023-06-22T13:12:36;8.80;;;4.32;;
55467;SDS011;41332;42.702;23.200;2023-06-22T13:15:01;7.70;;;5.07;;
55467;SDS011;41332;42.702;23.200;2023-06-22T13:17:28;8.68;;;6.20;;
55467;SDS011;41332;42.702;23.200;2023-06-22T13:19:53;11.57;;;5.65;;
55467;SDS011;41332;42.702;23.200;2023-06-22T13:22:29;9.45;;;6.07;;
55467;SDS011;41332;42.702;23.200;2023-06-22T13:24:56;9.07;;;5.88;;
55467;SDS011;41332;42.702;23.200;2023-06-22T13:27:22;12.30;;;5.63;;
55467;SDS011;41332;42.702;23.200;2023-06-22T13:29:48;9.67;;;5.77;;
55467;SDS011;41332;42.702;23.200;2023-06-22T13:32:13;6.57;;;5.25;;
55467;SDS011;41332;42.702;23.200;2023-06-22T13:34:38;12.88;;;7.03;;
55467;SDS011;41332;42.702;23.200;2023-06-22T13:37:04;5.55;;;5.05;;
55467;SDS011;41332;42.702;23.200;2023-06-22T13:39:29;5.97;;;5.20;;
55467;SDS011;41332;42.702;23.200;2023-06-22T13:41:55;7.38;;;5.50;;
55467;SDS011;41332;42.702;23.200;2023-06-22T13:44:24;12.40;;;6.50;;
55467;SDS011;41332;42.702;23.200;2023-06-22T13:46:53;6.63;;;6.03;;
55467;SDS011;41332;42.702;23.200;2023-06-22T13:49:19;6.60;;;5.82;;
55467;SDS011;41332;42.702;23.200;2023-06-22T13:51:44;10.32;;;6.18;;
55467;SDS011;41332;42.702;23.200;2023-06-22T13:54:10;14.45;;;6.43;;
55467;SDS011;41332;42.702;23.200;2023-06-22T13:56:35;12.40;;;7.50;;
55467;SDS011;41332;42.702;23.200;2023-06-22T13:59:01;11.80;;;6.35;;
55467;SDS011;41332;42.702;23.200;2023-06-22T14:01:26;7.38;;;6.13;;
55467;SDS011;41332;42.702;23.200;2023-06-22T14:03:51;13.27;;;6.47;;
55467;SDS011;41332;42.702;23.200;2023-06-22T14:06:17;7.70;;;6.90;;
55467;SDS011;41332;42.702;23.200;2023-06-22T14:08:42;13.27;;;6.32;;
55467;SDS011;41332;42.702;23.200;2023-06-22T14:11:07;9.27;;;5.72;;
55467;SDS011;41332;42.702;23.200;2023-06-22T14:13:33;8.88;;;7.25;;
55467;SDS011;41332;42.702;23.200;2023-06-22T14:16:00;9.32;;;6.90;;
55467;SDS011;41332;42.702;23.200;2023-06-22T14:18:26;10.17;;;6.63;;
55467;SDS011;41332;42.702;23.200;2023-06-22T14:20:51;11.48;;;7.00;;
55467;SDS011;41332;42.702;23.200;2023-06-22T14:23:19;9.60;;;6.30;;
55467;SDS011;41332;42.702;23.200;2023-06-22T14:25:44;8.17;;;6.40;;
55467;SDS011;41332;42.702;23.200;2023-06-22T14:28:10;11.50;;;7.37;;
55467;SDS011;41332;42.702;23.200;2023-06-22T14:30:35;8.03;;;7.27;;
55467;SDS011;41332;42.702;23.200;2023-06-22T14:33:00;8.50;;;6.50;;
55467;SDS011;41332;42.702;23.200;2023-06-22T14:35:26;8.00;;;6.60;;
55467;SDS011;41332;42.702;23.200;2023-06-22T14:37:51;10.63;;;6.88;;
55467;SDS011;41332;42.702;23.200;2023-06-22T14:40:17;7.63;;;6.93;;
55467;SDS011;41332;42.702;23.200;2023-06-22T14:42:42;9.73;;;8.48;;
55467;SDS011;41332;42.702;23.200;2023-06-22T14:45:07;7.83;;;6.43;;
55467;SDS011;41332;42.702;23.200;2023-06-22T14:47:33;8.87;;;7.97;;
55467;SDS011;41332;42.702;23.200;2023-06-22T14:49:58;12.20;;;7.38;;